createdAt,value
2022-11-13T00:01:18.323Z,99.40
2022-11-13T00:03:46.334Z,99.40
2022-11-13T00:06:15.222Z,99.40
2022-11-13T00:08:43.157Z,99.40
2022-11-13T00:11:13.028Z,99.40
2022-11-13T00:13:42.780Z,99.40
2022-11-13T00:16:14.554Z,99.40
2022-11-13T00:18:43.545Z,99.40
2022-11-13T00:21:14.735Z,99.40
2022-11-13T00:23:42.713Z,99.40
2022-11-13T00:26:12.896Z,99.40
2022-11-13T00:28:41.214Z,99.40
2022-11-13T00:31:10.495Z,99.40
2022-11-13T00:34:05.318Z,99.40
2022-11-13T00:36:28.934Z,99.40
2022-11-13T00:38:57.084Z,99.40
2022-11-13T00:41:25.406Z,99.40
2022-11-13T00:43:53.235Z,99.70
2022-11-13T00:46:21.048Z,99.40
2022-11-13T00:48:50.126Z,99.40
2022-11-13T00:51:19.437Z,99.30
2022-11-13T00:53:47.186Z,99.40
2022-11-13T00:56:15.032Z,99.40
2022-11-13T00:58:42.768Z,99.40
2022-11-13T01:01:12.705Z,99.30
2022-11-13T01:03:40.969Z,99.40
2022-11-13T01:06:15.156Z,99.40
2022-11-13T01:08:43.003Z,99.40
2022-11-13T01:11:12.241Z,99.30
2022-11-13T01:13:40.383Z,99.30
2022-11-13T01:16:10.835Z,99.30
2022-11-13T01:18:38.614Z,99.30
2022-11-13T01:21:08.270Z,99.30
2022-11-13T01:23:38.266Z,99.30
2022-11-13T01:26:08.945Z,99.30
2022-11-13T01:28:36.856Z,99.30
2022-11-13T01:31:06.815Z,99.30
2022-11-13T01:33:34.889Z,99.30
2022-11-13T01:36:04.091Z,99.30
2022-11-13T01:38:35.944Z,99.30
2022-11-13T01:41:07.210Z,99.30
2022-11-13T01:43:37.025Z,99.30
2022-11-13T01:46:18.784Z,99.30
2022-11-13T01:48:51.237Z,99.30
2022-11-13T01:51:25.195Z,99.30
2022-11-13T01:53:53.810Z,99.30
2022-11-13T01:56:23.475Z,99.30
2022-11-13T01:58:58.328Z,99.30
2022-11-13T02:01:26.461Z,99.30
2022-11-13T02:03:54.235Z,99.30
2022-11-13T02:06:22.677Z,99.30
2022-11-13T02:08:51.776Z,99.30
2022-11-13T02:11:20.477Z,99.30
2022-11-13T02:13:49.596Z,99.40
2022-11-13T02:16:18.265Z,99.30
2022-11-13T02:18:46.564Z,99.30
2022-11-13T02:21:26.749Z,99.30
2022-11-13T02:24:01.260Z,99.30
2022-11-13T02:26:32.329Z,99.40
2022-11-13T02:29:00.053Z,99.40
2022-11-13T02:31:27.844Z,99.30
2022-11-13T02:33:55.690Z,99.30
2022-11-13T02:36:24.861Z,99.30
2022-11-13T02:38:53.912Z,99.30
2022-11-13T02:41:21.668Z,99.30
2022-11-13T02:43:50.732Z,99.30
2022-11-13T02:46:18.410Z,99.30
2022-11-13T02:48:46.143Z,99.30
2022-11-13T02:51:14.165Z,99.30
2022-11-13T02:53:41.963Z,99.30
2022-11-13T02:56:10.026Z,99.30
2022-11-13T02:58:37.730Z,99.30
2022-11-13T03:01:07.138Z,99.30
2022-11-13T03:03:58.781Z,99.30
2022-11-13T03:06:22.821Z,99.40
2022-11-13T03:08:50.553Z,99.40
2022-11-13T03:11:18.323Z,99.40
2022-11-13T03:13:46.020Z,99.40
2022-11-13T03:16:16.980Z,99.40
2022-11-13T03:18:44.799Z,99.40
2022-11-13T03:21:15.935Z,99.30
2022-11-13T03:23:45.165Z,99.30
2022-11-13T03:26:15.476Z,99.30
2022-11-13T03:28:43.622Z,99.30
2022-11-13T03:31:11.415Z,99.30
2022-11-13T03:33:40.599Z,99.30
2022-11-13T03:36:08.741Z,99.30
2022-11-13T03:38:36.603Z,99.30
2022-11-13T03:41:04.360Z,99.30
2022-11-13T03:43:32.363Z,99.30
2022-11-13T03:46:00.067Z,99.40
2022-11-13T03:48:28.224Z,99.40
2022-11-13T03:50:57.646Z,99.30
2022-11-13T03:53:25.382Z,99.40
2022-11-13T03:55:53.110Z,99.40
2022-11-13T03:58:20.880Z,99.30
2022-11-13T04:00:49.592Z,99.30
2022-11-13T04:03:17.450Z,99.30
2022-11-13T04:05:45.175Z,99.30
2022-11-13T04:08:14.257Z,99.30
2022-11-13T04:10:42.660Z,99.30
2022-11-13T04:13:10.491Z,99.30
2022-11-13T04:15:38.278Z,99.30
2022-11-13T04:18:06.514Z,99.20
2022-11-13T04:20:34.266Z,99.30
2022-11-13T04:23:04.570Z,99.20
2022-11-13T04:25:33.593Z,99.20
2022-11-13T04:28:01.328Z,99.20
2022-11-13T04:30:29.046Z,99.50
2022-11-13T04:32:56.775Z,99.20
2022-11-13T04:35:24.516Z,99.20
2022-11-13T04:37:52.223Z,99.20
2022-11-13T04:40:19.955Z,99.20
2022-11-13T04:42:50.791Z,99.20
2022-11-13T04:45:19.576Z,99.20
2022-11-13T04:47:47.739Z,99.10
2022-11-13T04:50:17.096Z,99.10
2022-11-13T04:52:44.826Z,99.10
2022-11-13T04:55:13.516Z,99.10
2022-11-13T04:57:41.707Z,99.10
2022-11-13T05:00:12.434Z,99.10
2022-11-13T05:02:40.192Z,99.00
2022-11-13T05:05:08.661Z,99.00
2022-11-13T05:07:36.414Z,99.00
2022-11-13T05:10:04.484Z,99.00
2022-11-13T05:12:32.254Z,99.00
2022-11-13T05:14:59.983Z,99.00
2022-11-13T05:17:29.088Z,99.00
2022-11-13T05:19:56.806Z,99.00
2022-11-13T05:22:24.815Z,99.00
2022-11-13T05:24:52.560Z,98.90
2022-11-13T05:27:20.288Z,98.90
2022-11-13T05:29:48.042Z,98.80
2022-11-13T05:32:15.774Z,98.70
2022-11-13T05:34:44.845Z,98.70
2022-11-13T05:37:12.564Z,98.70
2022-11-13T05:39:40.296Z,98.70
2022-11-13T05:42:07.987Z,98.70
2022-11-13T05:44:35.707Z,98.60
2022-11-13T05:47:03.438Z,98.50
2022-11-13T05:49:31.228Z,98.60
2022-11-13T05:52:00.270Z,98.50
2022-11-13T05:54:27.964Z,98.50
2022-11-13T05:56:55.716Z,98.50
2022-11-13T05:59:23.558Z,98.50
2022-11-13T06:01:51.341Z,98.80
2022-11-13T06:04:19.043Z,98.40
2022-11-13T06:06:46.925Z,98.30
2022-11-13T06:09:17.124Z,98.30
2022-11-13T06:11:45.377Z,98.30
2022-11-13T06:14:13.104Z,98.30
2022-11-13T06:16:41.470Z,98.20
2022-11-13T06:19:11.499Z,98.20
2022-11-13T06:21:41.013Z,98.10
2022-11-13T06:24:11.465Z,98.10
2022-11-13T06:26:40.925Z,98.00
2022-11-13T06:29:11.881Z,97.90
2022-11-13T06:31:39.939Z,98.00
2022-11-13T06:34:07.702Z,97.90
2022-11-13T06:36:37.859Z,97.80
2022-11-13T06:39:08.711Z,97.80
2022-11-13T06:41:36.622Z,97.80
2022-11-13T06:44:06.115Z,97.80
2022-11-13T06:46:34.255Z,97.70
2022-11-13T06:49:02.038Z,97.70
2022-11-13T06:51:31.438Z,97.50
2022-11-13T06:53:59.214Z,97.40
2022-11-13T06:56:27.323Z,97.40
2022-11-13T06:58:55.966Z,97.30
2022-11-13T07:01:26.695Z,97.40
2022-11-13T07:03:54.806Z,97.40
2022-11-13T07:06:24.163Z,97.40
2022-11-13T07:08:52.726Z,97.40
2022-11-13T07:11:22.551Z,97.40
2022-11-13T07:13:50.980Z,97.30
2022-11-13T07:16:19.219Z,97.40
2022-11-13T07:18:52.015Z,97.40
2022-11-13T07:21:20.455Z,97.40
2022-11-13T07:23:49.258Z,97.40
2022-11-13T07:26:17.355Z,97.40
2022-11-13T07:28:45.399Z,97.40
2022-11-13T07:31:14.544Z,97.40
2022-11-13T07:33:42.462Z,97.30
2022-11-13T07:36:11.847Z,97.30
2022-11-13T07:38:39.891Z,97.30
2022-11-13T07:41:08.198Z,97.60
2022-11-13T07:43:36.127Z,97.30
2022-11-13T07:46:04.190Z,97.30
2022-11-13T07:48:32.196Z,97.30
2022-11-13T07:51:02.299Z,97.20
2022-11-13T07:53:31.735Z,97.20
2022-11-13T07:56:02.619Z,97.20
2022-11-13T07:58:31.253Z,97.20
2022-11-13T08:01:03.711Z,97.10
2022-11-13T08:03:31.664Z,97.10
2022-11-13T08:06:04.926Z,97.10
2022-11-13T08:08:34.517Z,97.00
2022-11-13T08:11:05.322Z,97.10
2022-11-13T08:13:34.092Z,97.00
2022-11-13T08:16:02.326Z,97.00
2022-11-13T08:18:31.403Z,96.90
2022-11-13T08:21:02.335Z,96.90
2022-11-13T08:23:30.081Z,96.90
2022-11-13T08:25:59.689Z,96.90
2022-11-13T08:28:27.579Z,96.90
2022-11-13T08:30:55.475Z,96.90
2022-11-13T08:33:23.214Z,96.80
2022-11-13T08:35:54.972Z,96.80
2022-11-13T08:38:23.143Z,96.80
2022-11-13T08:40:51.299Z,96.80
2022-11-13T08:43:20.411Z,96.70
2022-11-13T08:45:48.498Z,96.70
2022-11-13T08:48:16.545Z,96.70
2022-11-13T08:50:44.248Z,96.70
2022-11-13T08:53:12.483Z,96.70
2022-11-13T08:55:40.193Z,96.60
2022-11-13T08:58:07.935Z,96.60
2022-11-13T09:00:37.029Z,96.60
2022-11-13T09:03:04.974Z,96.60
2022-11-13T09:05:32.807Z,96.60
2022-11-13T09:08:02.201Z,96.60
2022-11-13T09:10:30.210Z,96.60
2022-11-13T09:12:59.397Z,96.60
2022-11-13T09:15:27.384Z,96.60
2022-11-13T09:17:59.100Z,96.50
2022-11-13T09:20:27.411Z,96.50
2022-11-13T09:22:59.071Z,96.40
2022-11-13T09:25:30.354Z,96.40
2022-11-13T09:28:03.253Z,96.40
2022-11-13T09:30:31.525Z,96.40
2022-11-13T09:33:01.848Z,96.40
2022-11-13T09:35:36.866Z,96.40
2022-11-13T09:38:11.188Z,96.40
2022-11-13T09:40:44.814Z,96.40
2022-11-13T09:43:23.631Z,96.40
2022-11-13T09:45:54.894Z,95.90
2022-11-13T09:48:32.096Z,95.90
2022-11-13T09:51:02.197Z,95.80
2022-11-13T09:53:35.994Z,95.80
2022-11-13T09:56:10.495Z,95.80
2022-11-13T09:58:46.644Z,95.80
2022-11-13T10:01:23.424Z,95.80
2022-11-13T10:04:01.827Z,95.80
2022-11-13T10:06:41.491Z,95.80
2022-11-13T10:09:20.077Z,95.70
2022-11-13T10:11:54.416Z,95.70
2022-11-13T10:14:27.329Z,95.50
2022-11-13T10:17:00.111Z,95.50
2022-11-13T10:19:35.749Z,95.40
2022-11-13T10:22:31.676Z,95.40
2022-11-13T10:25:02.000Z,95.30
2022-11-13T10:27:29.796Z,95.30
2022-11-13T10:29:58.550Z,95.20
2022-11-13T10:32:27.800Z,95.20
2022-11-13T10:35:01.945Z,95.10
2022-11-13T10:37:41.736Z,95.10
2022-11-13T10:40:09.943Z,95.10
2022-11-13T10:42:40.689Z,95.00
2022-11-13T10:45:16.175Z,94.90
2022-11-13T10:48:03.769Z,94.80
2022-11-13T10:50:35.480Z,94.70
2022-11-13T10:53:03.241Z,94.70
2022-11-13T10:55:41.681Z,94.70
2022-11-13T10:58:15.220Z,94.70
2022-11-13T11:00:44.719Z,94.60
2022-11-13T11:03:17.551Z,94.60
2022-11-13T11:05:57.827Z,94.60
2022-11-13T11:08:31.251Z,94.60
2022-11-13T11:11:19.140Z,94.40
2022-11-13T11:13:47.159Z,94.40
2022-11-13T11:16:21.046Z,94.40
2022-11-13T11:18:53.465Z,94.40
2022-11-13T11:21:27.557Z,94.20
2022-11-13T11:23:59.656Z,94.00
2022-11-13T11:26:32.284Z,94.00
2022-11-13T11:29:09.260Z,93.90
2022-11-13T11:31:41.506Z,94.00
2022-11-13T11:34:17.257Z,94.00
2022-11-13T11:36:56.568Z,94.00
2022-11-13T11:39:30.538Z,94.00
2022-11-13T11:42:08.615Z,93.90
2022-11-13T11:44:43.509Z,93.90
2022-11-13T11:47:15.970Z,93.60
2022-11-13T11:49:44.888Z,93.40
2022-11-13T11:52:29.948Z,93.40
2022-11-13T11:55:08.567Z,93.40
2022-11-13T11:57:50.043Z,93.40
2022-11-13T12:00:20.126Z,93.50
2022-11-13T12:03:10.435Z,93.70
2022-11-13T12:05:49.755Z,93.70
2022-11-13T12:08:31.292Z,93.90
2022-11-13T12:11:04.017Z,93.90
2022-11-13T12:13:33.466Z,93.90
2022-11-13T12:16:07.478Z,93.90
2022-11-13T12:18:43.875Z,93.90
2022-11-13T12:21:22.938Z,93.90
2022-11-13T12:24:10.482Z,93.90
2022-11-13T12:26:47.352Z,93.80
2022-11-13T12:29:30.002Z,93.80
2022-11-13T12:32:08.741Z,93.80
2022-11-13T12:34:42.546Z,93.70
2022-11-13T12:37:15.076Z,93.70
2022-11-13T12:39:50.446Z,93.80
2022-11-13T12:42:22.799Z,93.70
2022-11-13T12:45:00.920Z,93.70
2022-11-13T12:47:28.818Z,93.70
2022-11-13T12:50:01.680Z,93.60
2022-11-13T12:52:29.783Z,93.60
2022-11-13T12:55:25.390Z,93.50
2022-11-13T12:57:53.237Z,93.50
2022-11-13T13:00:25.449Z,93.40
2022-11-13T13:03:18.658Z,93.50
2022-11-13T13:06:15.648Z,93.50
2022-11-13T13:09:02.059Z,93.40
2022-11-13T13:11:42.179Z,93.40
2022-11-13T13:14:35.855Z,93.40
2022-11-13T13:17:10.122Z,93.40
2022-11-13T13:19:37.841Z,93.30
2022-11-13T13:22:12.175Z,93.30
2022-11-13T13:24:40.260Z,93.30
2022-11-13T13:27:24.495Z,93.20
2022-11-13T13:29:52.211Z,93.10
2022-11-13T13:32:25.197Z,93.00
2022-11-13T13:35:08.659Z,93.00
2022-11-13T13:37:44.340Z,93.00
2022-11-13T13:40:30.768Z,92.90
2022-11-13T13:43:17.497Z,92.70
2022-11-13T13:45:57.772Z,92.70
2022-11-13T13:48:28.192Z,92.90
2022-11-13T13:50:57.468Z,92.90
2022-11-13T13:53:28.476Z,92.90
2022-11-13T13:55:57.341Z,92.90
2022-11-13T13:58:30.430Z,92.80
2022-11-13T14:01:20.635Z,92.70
2022-11-13T14:03:48.354Z,92.70
2022-11-13T14:06:22.105Z,92.60
2022-11-13T14:08:49.918Z,92.70
2022-11-13T14:11:19.885Z,92.70
2022-11-13T14:13:48.931Z,92.60
2022-11-13T14:16:16.880Z,92.50
2022-11-13T14:18:44.731Z,92.50
2022-11-13T14:21:16.504Z,92.50
2022-11-13T14:23:47.969Z,92.60
2022-11-13T14:26:16.177Z,92.60
2022-11-13T14:28:53.589Z,92.50
2022-11-13T14:31:27.587Z,92.50
2022-11-13T14:33:55.547Z,92.50
2022-11-13T14:36:29.813Z,92.50
2022-11-13T14:38:58.408Z,92.60
2022-11-13T14:41:32.167Z,92.60
2022-11-13T14:44:01.476Z,92.60
2022-11-13T14:46:31.883Z,92.60
2022-11-13T14:48:59.633Z,92.60
2022-11-13T14:51:30.133Z,92.60
2022-11-13T14:54:01.382Z,92.50
2022-11-13T14:56:37.489Z,92.40
2022-11-13T14:59:15.551Z,92.40
2022-11-13T15:01:54.968Z,92.50
2022-11-13T15:04:22.701Z,92.50
2022-11-13T15:06:55.271Z,92.50
2022-11-13T15:09:25.271Z,92.50
2022-11-13T15:11:53.222Z,92.60
2022-11-13T15:14:23.451Z,92.60
2022-11-13T15:16:53.497Z,92.70
2022-11-13T15:19:30.244Z,92.70
2022-11-13T15:22:25.769Z,92.80
2022-11-13T15:24:46.399Z,92.80
2022-11-13T15:27:15.942Z,92.90
2022-11-13T15:29:45.472Z,93.00
2022-11-13T15:32:14.437Z,92.90
2022-11-13T15:34:42.193Z,93.00
2022-11-13T15:37:13.034Z,93.00
2022-11-13T15:39:40.779Z,93.00
2022-11-13T15:42:14.028Z,93.00
2022-11-13T15:44:41.819Z,93.00
2022-11-13T15:47:27.989Z,93.00
2022-11-13T15:50:13.024Z,93.10
2022-11-13T15:52:50.852Z,93.10
2022-11-13T15:55:22.851Z,93.10
2022-11-13T15:57:50.734Z,93.10
2022-11-13T16:00:21.151Z,93.20
2022-11-13T16:02:51.904Z,93.20
2022-11-13T16:05:19.775Z,93.10
2022-11-13T16:07:47.495Z,93.10
2022-11-13T16:10:16.216Z,93.10
2022-11-13T16:12:45.715Z,93.10
2022-11-13T16:15:15.510Z,93.10
2022-11-13T16:17:48.281Z,93.20
2022-11-13T16:20:18.604Z,93.20
2022-11-13T16:22:46.725Z,93.30
2022-11-13T16:25:16.464Z,93.40
2022-11-13T16:27:44.817Z,93.50
2022-11-13T16:30:16.871Z,93.60
2022-11-13T16:32:44.586Z,93.60
2022-11-13T16:35:17.733Z,93.60
2022-11-13T16:37:45.586Z,93.70
2022-11-13T16:40:20.956Z,93.60
2022-11-13T16:42:48.867Z,93.70
2022-11-13T16:45:16.851Z,93.70
2022-11-13T16:47:45.209Z,93.70
2022-11-13T16:50:15.276Z,93.70
2022-11-13T16:52:44.625Z,93.70
2022-11-13T16:55:13.099Z,93.80
2022-11-13T16:57:41.536Z,93.80
2022-11-13T17:00:13.803Z,93.90
2022-11-13T17:02:41.754Z,93.90
2022-11-13T17:05:13.317Z,93.90
2022-11-13T17:07:41.062Z,94.00
2022-11-13T17:10:30.195Z,94.00
2022-11-13T17:13:00.674Z,94.00
2022-11-13T17:15:28.454Z,94.50
2022-11-13T17:17:58.313Z,94.60
2022-11-13T17:20:26.084Z,94.60
2022-11-13T17:22:53.792Z,94.60
2022-11-13T17:25:26.223Z,94.60
2022-11-13T17:27:53.932Z,94.60
2022-11-13T17:30:22.011Z,94.60
2022-11-13T17:32:49.777Z,94.70
2022-11-13T17:35:17.693Z,94.70
2022-11-13T17:37:45.384Z,94.70
2022-11-13T17:40:13.212Z,94.70
2022-11-13T17:42:43.087Z,94.70
2022-11-13T17:45:11.576Z,94.70
2022-11-13T17:47:39.398Z,94.70
2022-11-13T17:50:08.135Z,94.60
2022-11-13T17:52:36.015Z,94.60
2022-11-13T17:55:05.962Z,94.60
2022-11-13T17:57:34.190Z,94.60
2022-11-13T18:00:03.874Z,94.60
2022-11-13T18:02:31.587Z,94.60
2022-11-13T18:05:01.218Z,94.60
2022-11-13T18:07:29.641Z,94.60
2022-11-13T18:09:57.683Z,94.60
2022-11-13T18:12:25.492Z,94.60
2022-11-13T18:14:53.256Z,94.60
2022-11-13T18:17:23.061Z,94.60
2022-11-13T18:19:54.778Z,94.60
2022-11-13T18:22:26.522Z,94.60
2022-11-13T18:24:55.419Z,94.60
2022-11-13T18:27:23.126Z,94.70
2022-11-13T18:29:50.851Z,94.70
2022-11-13T18:32:18.583Z,94.70
2022-11-13T18:34:47.714Z,94.70
2022-11-13T18:37:15.436Z,94.70
2022-11-13T18:39:43.186Z,94.70
2022-11-13T18:42:10.878Z,94.60
2022-11-13T18:44:38.599Z,94.70
2022-11-13T18:47:06.363Z,94.70
2022-11-13T18:49:34.194Z,94.70
2022-11-13T18:52:03.254Z,94.70
2022-11-13T18:54:30.979Z,94.70
2022-11-13T18:56:58.684Z,94.80
2022-11-13T18:59:26.380Z,94.80
2022-11-13T19:01:54.333Z,94.80
2022-11-13T19:04:23.535Z,94.80
2022-11-13T19:06:52.388Z,94.80
2022-11-13T19:09:21.549Z,94.80
2022-11-13T19:11:50.136Z,94.70
2022-11-13T19:14:19.792Z,94.70
2022-11-13T19:16:47.979Z,94.60
2022-11-13T19:19:18.181Z,94.60
2022-11-13T19:21:46.842Z,94.70
2022-11-13T19:24:15.120Z,94.60
2022-11-13T19:26:44.655Z,94.50
2022-11-13T19:29:12.798Z,94.50
2022-11-13T19:31:40.568Z,94.60
2022-11-13T19:34:08.929Z,94.50
2022-11-13T19:36:37.485Z,94.50
2022-11-13T19:39:06.092Z,94.60
2022-11-13T19:41:34.031Z,94.60
2022-11-13T19:44:03.118Z,94.60
2022-11-13T19:46:33.856Z,94.60
2022-11-13T19:49:01.663Z,94.60
2022-11-13T19:51:29.460Z,94.70
2022-11-13T19:53:58.676Z,94.60
2022-11-13T19:56:28.090Z,94.70
2022-11-13T19:58:56.554Z,94.70
2022-11-13T20:01:26.915Z,94.80
2022-11-13T20:03:55.376Z,94.80
2022-11-13T20:06:23.503Z,94.80
2022-11-13T20:08:51.252Z,94.80
2022-11-13T20:11:19.042Z,94.90
2022-11-13T20:13:46.988Z,94.90
2022-11-13T20:16:16.557Z,94.80
2022-11-13T20:18:45.803Z,94.80
2022-11-13T20:21:13.909Z,94.90
2022-11-13T20:23:41.950Z,94.80
2022-11-13T20:26:16.252Z,94.80
2022-11-13T20:28:44.108Z,94.80
2022-11-13T20:31:16.230Z,94.70
2022-11-13T20:33:45.318Z,94.70
2022-11-13T20:36:13.133Z,94.70
2022-11-13T20:38:41.247Z,94.60
2022-11-13T20:41:11.174Z,94.60
2022-11-13T20:43:38.939Z,94.60
2022-11-13T20:46:08.496Z,95.10
2022-11-13T20:48:36.704Z,94.80
2022-11-13T20:51:11.358Z,94.70
2022-11-13T20:53:39.556Z,94.60
2022-11-13T20:56:08.370Z,94.60
2022-11-13T20:58:36.623Z,94.70
2022-11-13T21:01:05.458Z,94.70
2022-11-13T21:03:37.261Z,94.60
2022-11-13T21:06:10.870Z,94.60
2022-11-13T21:08:39.052Z,94.70
2022-11-13T21:11:08.758Z,94.60
2022-11-13T21:13:36.463Z,94.60
2022-11-13T21:16:06.012Z,94.60
2022-11-13T21:18:33.726Z,94.60
2022-11-13T21:21:05.582Z,94.50
2022-11-13T21:23:34.740Z,94.50
2022-11-13T21:26:03.457Z,94.50
2022-11-13T21:28:33.726Z,94.50
2022-11-13T21:31:03.624Z,94.50
2022-11-13T21:33:31.678Z,94.50
2022-11-13T21:36:05.152Z,94.40
2022-11-13T21:38:34.516Z,94.40
2022-11-13T21:41:22.763Z,94.30
2022-11-13T21:43:51.175Z,94.30
2022-11-13T21:46:19.791Z,94.20
2022-11-13T21:48:48.203Z,94.50
2022-11-13T21:51:16.391Z,94.10
2022-11-13T21:53:45.802Z,94.10
2022-11-13T21:56:15.850Z,94.10
2022-11-13T21:58:44.124Z,94.10
2022-11-13T22:01:12.802Z,94.10
2022-11-13T22:03:40.687Z,94.10
2022-11-13T22:06:20.319Z,94.10
2022-11-13T22:08:56.031Z,94.00
2022-11-13T22:11:24.267Z,94.00
2022-11-13T22:13:52.431Z,94.00
2022-11-13T22:16:20.864Z,94.00
2022-11-13T22:18:48.633Z,94.30
2022-11-13T22:21:16.722Z,94.00
2022-11-13T22:23:44.450Z,93.90
2022-11-13T22:26:15.118Z,93.90
2022-11-13T22:28:44.354Z,94.00
2022-11-13T22:31:15.222Z,94.00
2022-11-13T22:33:48.121Z,93.90
2022-11-13T22:36:18.014Z,93.90
2022-11-13T22:38:45.863Z,93.90
2022-11-13T22:41:22.608Z,93.90
2022-11-13T22:43:52.669Z,93.90
2022-11-13T22:46:22.217Z,93.90
2022-11-13T22:48:51.501Z,93.80
2022-11-13T22:51:22.706Z,93.80
2022-11-13T22:53:52.290Z,93.80
2022-11-13T22:56:24.291Z,93.80
2022-11-13T22:58:53.531Z,93.80
2022-11-13T23:01:22.787Z,93.70
2022-11-13T23:03:52.226Z,93.70
2022-11-13T23:06:21.489Z,94.00
2022-11-13T23:08:50.067Z,93.70
2022-11-13T23:11:19.792Z,93.70
2022-11-13T23:13:53.773Z,93.70
2022-11-13T23:16:22.584Z,93.70
2022-11-13T23:18:51.162Z,93.70
2022-11-13T23:21:19.305Z,93.70
2022-11-13T23:23:47.267Z,93.70
2022-11-13T23:26:16.778Z,93.70
2022-11-13T23:28:44.719Z,93.70
2022-11-13T23:31:14.514Z,93.60
2022-11-13T23:33:42.720Z,93.60
2022-11-13T23:36:12.540Z,93.60
2022-11-13T23:38:40.641Z,93.60
2022-11-13T23:41:09.844Z,93.60
2022-11-13T23:44:06.942Z,93.60
2022-11-13T23:46:26.665Z,93.50
2022-11-13T23:48:54.524Z,93.60
2022-11-13T23:51:22.376Z,93.60
2022-11-13T23:53:50.106Z,93.60
2022-11-13T23:56:18.036Z,93.60
2022-11-13T23:58:45.715Z,93.60
